Time;durP1;ratioP1;P1;durP2;ratioP2;P2;SDS_P1;SDS_P2;PMS_P1;PMS_P2;Temp;Humidity;BMP_temperature;BMP_pressure;BME280_temperature;BME280_humidity;BME280_pressure;Samples;Min_cycle;Max_cycle;Signal;HPM_P1;HPM_P2
2024/01/31 00:01:51;;;;;;;0.80;0.30;;;;;;;;;;5014367;28;20100;-68
2024/01/31 00:04:17;;;;;;;1.58;0.43;;;;;;;;;;5018339;28;20073;-68
2024/01/31 00:06:48;;;;;;;0.30;0.10;;;;;;;;;;5017077;28;20088;-68
2024/01/31 00:09:14;;;;;;;1.10;0.20;;;;;;;;;;5016218;28;20111;-68
2024/01/31 00:11:40;;;;;;;0.80;0.17;;;;;;;;;;5021726;28;20049;-68
2024/01/31 00:14:07;;;;;;;0.77;0.50;;;;;;;;;;5023333;28;20072;-68
2024/01/31 00:16:33;;;;;;;0.80;0.32;;;;;;;;;;5023576;28;20046;-68
2024/01/31 00:19:00;;;;;;;1.65;0.20;;;;;;;;;;5019743;28;20056;-68
2024/01/31 00:21:26;;;;;;;1.33;0.30;;;;;;;;;;5021963;28;20161;-68
2024/01/31 00:23:52;;;;;;;0.85;0.15;;;;;;;;;;5023171;28;20558;-68
2024/01/31 00:26:18;;;;;;;2.85;0.52;;;;;;;;;;5018488;28;20477;-68
2024/01/31 00:28:44;;;;;;;1.67;0.45;;;;;;;;;;5020509;28;20153;-68
2024/01/31 00:31:11;;;;;;;2.05;0.70;;;;;;;;;;5019297;28;20806;-68
2024/01/31 00:33:38;;;;;;;0.68;0.22;;;;;;;;;;5021686;28;20419;-68
2024/01/31 00:36:04;;;;;;;0.98;0.20;;;;;;;;;;5023541;28;20381;-68
2024/01/31 00:38:30;;;;;;;1.73;0.38;;;;;;;;;;5016880;28;20057;-68
2024/01/31 00:40:56;;;;;;;0.20;0.20;;;;;;;;;;5022278;28;20049;-68
2024/01/31 00:43:22;;;;;;;0.28;0.10;;;;;;;;;;5019138;28;20443;-68
2024/01/31 00:45:48;;;;;;;0.63;0.15;;;;;;;;;;5022091;28;20136;-68
2024/01/31 00:48:14;;;;;;;0.73;0.30;;;;;;;;;;5020648;28;20493;-68
2024/01/31 00:50:41;;;;;;;1.30;0.32;;;;;;;;;;5015478;28;20045;-68
2024/01/31 00:53:07;;;;;;;0.08;0.08;;;;;;;;;;5017366;28;20049;-68
2024/01/31 00:55:33;;;;;;;0.63;0.20;;;;;;;;;;5020208;28;20518;-68
2024/01/31 00:57:59;;;;;;;0.40;0.17;;;;;;;;;;5021293;28;20049;-68
2024/01/31 01:00:26;;;;;;;0.35;0.15;;;;;;;;;;5020807;28;20507;-69
2024/01/31 01:02:51;;;;;;;0.38;0.30;;;;;;;;;;5029544;28;20061;-68
2024/01/31 01:05:18;;;;;;;3.65;0.50;;;;;;;;;;5021545;28;20049;-67
2024/01/31 01:07:45;;;;;;;1.52;0.47;;;;;;;;;;5018542;28;20053;-68
2024/01/31 01:10:15;;;;;;;0.35;0.13;;;;;;;;;;5016940;28;20092;-68
2024/01/31 01:12:44;;;;;;;2.17;0.40;;;;;;;;;;5021984;28;20619;-68
2024/01/31 01:15:10;;;;;;;0.20;0.10;;;;;;;;;;5015771;28;20059;-68
2024/01/31 01:17:36;;;;;;;0.95;0.30;;;;;;;;;;5020097;28;20516;-68
2024/01/31 01:20:02;;;;;;;1.52;0.20;;;;;;;;;;5017516;28;20049;-69
2024/01/31 01:22:28;;;;;;;1.65;0.30;;;;;;;;;;5015862;28;20057;-68
2024/01/31 01:24:54;;;;;;;2.45;0.35;;;;;;;;;;5016735;28;20496;-69
2024/01/31 01:27:20;;;;;;;0.50;0.20;;;;;;;;;;5021188;28;20053;-68
2024/01/31 01:29:47;;;;;;;3.30;0.43;;;;;;;;;;5020433;28;20096;-68
2024/01/31 01:32:13;;;;;;;0.45;0.10;;;;;;;;;;5019479;28;20135;-68
2024/01/31 01:34:42;;;;;;;0.17;0.15;;;;;;;;;;5018638;28;20588;-68
2024/01/31 01:37:08;;;;;;;0.30;0.20;;;;;;;;;;5020099;28;20054;-68
2024/01/31 01:39:35;;;;;;;0.65;0.28;;;;;;;;;;5017858;28;20056;-68
2024/01/31 01:42:01;;;;;;;0.30;0.20;;;;;;;;;;5022055;28;20037;-68
2024/01/31 01:44:30;;;;;;;0.38;0.30;;;;;;;;;;5020684;28;20137;-68
2024/01/31 01:46:56;;;;;;;1.65;0.20;;;;;;;;;;5019449;28;20128;-69
2024/01/31 01:49:22;;;;;;;0.47;0.00;;;;;;;;;;5023756;28;20049;-68
2024/01/31 01:51:49;;;;;;;0.73;0.20;;;;;;;;;;5017492;28;20103;-68
2024/01/31 01:54:15;;;;;;;0.45;0.10;;;;;;;;;;5020412;28;20041;-69
2024/01/31 01:56:42;;;;;;;0.38;0.22;;;;;;;;;;5018857;28;20275;-68
2024/01/31 01:59:08;;;;;;;1.38;0.40;;;;;;;;;;5019598;28;20514;-68
2024/01/31 02:01:34;;;;;;;2.42;0.40;;;;;;;;;;5018484;28;20569;-67
2024/01/31 02:04:00;;;;;;;1.02;0.30;;;;;;;;;;5016692;28;20073;-69
2024/01/31 02:06:27;;;;;;;1.50;0.10;;;;;;;;;;5017154;28;20053;-68
2024/01/31 02:08:53;;;;;;;0.57;0.10;;;;;;;;;;5022828;28;20049;-68
2024/01/31 02:11:19;;;;;;;1.17;0.50;;;;;;;;;;5020254;28;20096;-68
2024/01/31 02:13:45;;;;;;;0.10;0.10;;;;;;;;;;5020278;28;20389;-68
2024/01/31 02:16:12;;;;;;;0.40;0.30;;;;;;;;;;5017310;28;20088;-69
2024/01/31 02:18:38;;;;;;;0.60;0.28;;;;;;;;;;5018094;28;20473;-68
2024/01/31 02:21:04;;;;;;;0.82;0.20;;;;;;;;;;5018762;28;20120;-69
2024/01/31 02:23:30;;;;;;;0.70;0.20;;;;;;;;;;5020979;28;20107;-68
2024/01/31 02:25:56;;;;;;;0.82;0.20;;;;;;;;;;5018233;28;20061;-69
2024/01/31 02:28:22;;;;;;;1.13;0.40;;;;;;;;;;5017985;28;20045;-68
2024/01/31 02:30:48;;;;;;;0.52;0.32;;;;;;;;;;5018319;28;20045;-68
2024/01/31 02:33:14;;;;;;;0.68;0.28;;;;;;;;;;5017279;28;20341;-68
2024/01/31 02:35:40;;;;;;;1.45;0.32;;;;;;;;;;5017281;28;20538;-69
2024/01/31 02:38:06;;;;;;;0.75;0.40;;;;;;;;;;5021166;28;20045;-69
2024/01/31 02:40:32;;;;;;;0.98;0.20;;;;;;;;;;5020186;28;20119;-68
2024/01/31 02:42:59;;;;;;;2.03;0.30;;;;;;;;;;5016133;28;20557;-69
2024/01/31 02:45:25;;;;;;;0.80;0.10;;;;;;;;;;5019267;28;20081;-69
2024/01/31 02:47:51;;;;;;;0.47;0.15;;;;;;;;;;5019320;28;20045;-68
2024/01/31 02:50:17;;;;;;;2.38;0.30;;;;;;;;;;5017546;28;20050;-69
2024/01/31 02:52:44;;;;;;;2.40;0.60;;;;;;;;;;5014290;28;20081;-68
2024/01/31 02:55:10;;;;;;;1.55;0.50;;;;;;;;;;5015730;28;20053;-68
2024/01/31 02:57:36;;;;;;;1.75;0.30;;;;;;;;;;5015791;28;20054;-69
2024/01/31 03:00:04;;;;;;;2.70;0.43;;;;;;;;;;5017511;28;20095;-68
2024/01/31 03:02:30;;;;;;;0.73;0.10;;;;;;;;;;5013401;28;20103;-68
2024/01/31 03:04:56;;;;;;;2.03;0.63;;;;;;;;;;5013749;28;20061;-69
2024/01/31 03:07:22;;;;;;;0.55;0.35;;;;;;;;;;5016859;28;20041;-68
2024/01/31 03:09:48;;;;;;;2.42;0.43;;;;;;;;;;5014859;28;20072;-69
2024/01/31 03:12:14;;;;;;;1.30;0.80;;;;;;;;;;5018667;28;20720;-68
2024/01/31 03:14:40;;;;;;;4.03;0.47;;;;;;;;;;5026557;28;20061;-68
2024/01/31 03:17:06;;;;;;;3.25;1.25;;;;;;;;;;5019487;28;20056;-69
2024/01/31 03:19:32;;;;;;;3.65;0.60;;;;;;;;;;5017381;28;20045;-68
2024/01/31 03:21:58;;;;;;;1.10;0.30;;;;;;;;;;5016075;28;20045;-68
2024/01/31 03:24:25;;;;;;;4.43;0.50;;;;;;;;;;5017579;28;20038;-69
2024/01/31 03:26:51;;;;;;;1.92;0.68;;;;;;;;;;5016276;28;20069;-68
2024/01/31 03:29:17;;;;;;;1.23;0.57;;;;;;;;;;5015820;28;20136;-68
2024/01/31 03:31:43;;;;;;;2.50;0.50;;;;;;;;;;5019019;28;20045;-68
2024/01/31 03:34:09;;;;;;;1.35;0.50;;;;;;;;;;5020123;28;20045;-68
2024/01/31 03:36:35;;;;;;;5.50;1.70;;;;;;;;;;5017918;28;20037;-69
2024/01/31 03:39:02;;;;;;;0.52;0.35;;;;;;;;;;5018777;28;20041;-68
2024/01/31 03:41:28;;;;;;;1.73;0.40;;;;;;;;;;5016278;28;20392;-69
2024/01/31 03:43:54;;;;;;;1.95;0.38;;;;;;;;;;5018079;28;20076;-68
2024/01/31 03:46:21;;;;;;;0.90;0.60;;;;;;;;;;5018810;28;20124;-68
2024/01/31 03:48:47;;;;;;;2.03;1.05;;;;;;;;;;5018477;28;20477;-68
2024/01/31 03:51:20;;;;;;;0.95;0.25;;;;;;;;;;5016526;28;20037;-68
2024/01/31 03:53:49;;;;;;;1.55;0.40;;;;;;;;;;5014231;28;20049;-68
2024/01/31 03:56:16;;;;;;;2.75;0.30;;;;;;;;;;5020129;28;20513;-69
2024/01/31 03:58:42;;;;;;;1.23;0.30;;;;;;;;;;5012944;28;20054;-68
2024/01/31 04:01:08;;;;;;;0.75;0.30;;;;;;;;;;5015866;28;20120;-68
2024/01/31 04:03:36;;;;;;;4.10;0.20;;;;;;;;;;5020945;28;20052;-67
2024/01/31 04:06:02;;;;;;;0.13;0.10;;;;;;;;;;5018199;28;20045;-69
2024/01/31 04:08:29;;;;;;;0.68;0.20;;;;;;;;;;5018627;28;20053;-69
2024/01/31 04:10:55;;;;;;;1.17;0.22;;;;;;;;;;5019658;28;20045;-68
2024/01/31 04:13:21;;;;;;;1.30;0.30;;;;;;;;;;5017987;28;20572;-68
2024/01/31 04:15:47;;;;;;;4.70;0.20;;;;;;;;;;5018950;28;20074;-68
2024/01/31 04:18:13;;;;;;;1.88;0.35;;;;;;;;;;5018507;28;20045;-69
2024/01/31 04:20:39;;;;;;;1.85;0.30;;;;;;;;;;5018457;28;20049;-68
2024/01/31 04:23:05;;;;;;;0.68;0.25;;;;;;;;;;5019666;28;20044;-68
2024/01/31 04:25:31;;;;;;;0.73;0.30;;;;;;;;;;5017599;28;20071;-68
2024/01/31 04:27:57;;;;;;;1.50;0.30;;;;;;;;;;5021772;28;20061;-69
2024/01/31 04:30:23;;;;;;;1.52;0.15;;;;;;;;;;5019255;28;20393;-68
2024/01/31 04:32:49;;;;;;;1.15;0.60;;;;;;;;;;5021729;28;20056;-68
2024/01/31 04:35:15;;;;;;;1.85;0.30;;;;;;;;;;5019504;28;20046;-69
2024/01/31 04:37:41;;;;;;;1.88;0.13;;;;;;;;;;5022113;28;20068;-68
2024/01/31 04:40:08;;;;;;;1.00;0.30;;;;;;;;;;5019264;28;20050;-68
2024/01/31 04:42:34;;;;;;;0.38;0.25;;;;;;;;;;5019119;28;20195;-68
2024/01/31 04:45:00;;;;;;;2.38;0.40;;;;;;;;;;5020708;28;20052;-68
2024/01/31 04:47:26;;;;;;;0.17;0.10;;;;;;;;;;5021350;28;20045;-68
2024/01/31 04:49:53;;;;;;;0.45;0.20;;;;;;;;;;5018535;28;20426;-69
2024/01/31 04:52:19;;;;;;;1.45;0.30;;;;;;;;;;5018989;28;20056;-69
2024/01/31 04:54:45;;;;;;;0.45;0.17;;;;;;;;;;5024643;28;20049;-68
2024/01/31 04:57:11;;;;;;;0.70;0.30;;;;;;;;;;5017888;28;20064;-68
2024/01/31 04:59:38;;;;;;;1.45;0.30;;;;;;;;;;5021055;28;20088;-68
2024/01/31 05:02:04;;;;;;;0.32;0.15;;;;;;;;;;5024022;28;20060;-68
2024/01/31 05:04:30;;;;;;;1.77;0.13;;;;;;;;;;5023043;28;20055;-69
2024/01/31 05:06:56;;;;;;;0.65;0.50;;;;;;;;;;5022427;28;20053;-68
2024/01/31 05:09:22;;;;;;;1.55;0.40;;;;;;;;;;5020184;28;20045;-69
2024/01/31 05:11:48;;;;;;;2.17;0.40;;;;;;;;;;5023360;28;20053;-69
2024/01/31 05:14:14;;;;;;;0.52;0.30;;;;;;;;;;5018574;28;20052;-69
2024/01/31 05:16:42;;;;;;;0.85;0.30;;;;;;;;;;5020966;28;20053;-68
2024/01/31 05:19:08;;;;;;;0.90;0.32;;;;;;;;;;5022563;28;20049;-68
2024/01/31 05:21:34;;;;;;;1.88;0.30;;;;;;;;;;5017018;28;21921;-68
2024/01/31 05:24:00;;;;;;;1.27;0.13;;;;;;;;;;5021876;28;20042;-68
2024/01/31 05:26:26;;;;;;;0.40;0.25;;;;;;;;;;5019465;28;20053;-68
2024/01/31 05:28:52;;;;;;;1.05;0.52;;;;;;;;;;5021985;28;20053;-68
2024/01/31 05:31:18;;;;;;;0.32;0.20;;;;;;;;;;5019052;28;20072;-69
2024/01/31 05:33:44;;;;;;;0.75;0.10;;;;;;;;;;5022302;28;20104;-68
2024/01/31 05:36:10;;;;;;;0.88;0.50;;;;;;;;;;5020206;28;20081;-68
2024/01/31 05:38:36;;;;;;;0.60;0.30;;;;;;;;;;5014164;28;20691;-68
2024/01/31 05:41:02;;;;;;;1.20;0.30;;;;;;;;;;5021682;28;20051;-68
2024/01/31 05:43:28;;;;;;;0.55;0.35;;;;;;;;;;5019659;28;20128;-69
2024/01/31 05:45:56;;;;;;;0.57;0.17;;;;;;;;;;5020112;28;20144;-68
2024/01/31 05:48:22;;;;;;;0.30;0.20;;;;;;;;;;5015674;28;20041;-69
2024/01/31 05:50:48;;;;;;;0.77;0.10;;;;;;;;;;5021766;28;20485;-69
2024/01/31 05:53:14;;;;;;;1.23;0.30;;;;;;;;;;5020680;28;20064;-68
2024/01/31 05:55:40;;;;;;;1.20;0.60;;;;;;;;;;5018122;28;20056;-68
2024/01/31 05:58:06;;;;;;;1.23;0.45;;;;;;;;;;5019593;28;20050;-68
2024/01/31 06:00:32;;;;;;;1.77;0.40;;;;;;;;;;5016559;28;20407;-69
2024/01/31 06:02:58;;;;;;;0.35;0.30;;;;;;;;;;5017162;28;20045;-69
2024/01/31 06:05:24;;;;;;;0.30;0.30;;;;;;;;;;5017795;28;20152;-68
2024/01/31 06:07:50;;;;;;;3.92;1.17;;;;;;;;;;5019216;28;20072;-68
2024/01/31 06:10:16;;;;;;;1.55;0.45;;;;;;;;;;5020607;28;20040;-68
2024/01/31 06:12:42;;;;;;;0.90;0.30;;;;;;;;;;5020663;28;20111;-67
2024/01/31 06:15:08;;;;;;;0.30;0.30;;;;;;;;;;5023316;28;20041;-68
2024/01/31 06:17:34;;;;;;;0.77;0.35;;;;;;;;;;5018617;28;20056;-68
2024/01/31 06:20:00;;;;;;;1.55;0.60;;;;;;;;;;5017750;28;20049;-68
2024/01/31 06:22:27;;;;;;;1.20;0.50;;;;;;;;;;5018769;28;20053;-68
2024/01/31 06:24:53;;;;;;;4.28;0.88;;;;;;;;;;5020053;28;20050;-68
2024/01/31 06:27:18;;;;;;;2.15;0.50;;;;;;;;;;5018622;28;20049;-69
2024/01/31 06:29:45;;;;;;;1.05;0.45;;;;;;;;;;5018084;28;20111;-68
2024/01/31 06:32:11;;;;;;;2.97;0.47;;;;;;;;;;5013846;28;20665;-68
2024/01/31 06:34:37;;;;;;;1.25;0.75;;;;;;;;;;5016549;28;20073;-68
2024/01/31 06:37:03;;;;;;;1.98;0.55;;;;;;;;;;5019313;28;20049;-68
2024/01/31 06:39:29;;;;;;;0.75;0.65;;;;;;;;;;5015396;28;20051;-68
2024/01/31 06:41:55;;;;;;;0.88;0.30;;;;;;;;;;5018178;28;20049;-68
2024/01/31 06:44:21;;;;;;;0.40;0.40;;;;;;;;;;5015926;28;20404;-68
2024/01/31 06:46:49;;;;;;;0.65;0.43;;;;;;;;;;5017281;28;20049;-68
2024/01/31 06:49:15;;;;;;;0.60;0.22;;;;;;;;;;5017420;28;20053;-68
2024/01/31 06:51:41;;;;;;;1.48;0.50;;;;;;;;;;5019699;28;20584;-68
2024/01/31 06:54:07;;;;;;;1.02;0.40;;;;;;;;;;5018654;28;20060;-67
2024/01/31 06:56:33;;;;;;;0.45;0.43;;;;;;;;;;5014847;28;20484;-68
2024/01/31 06:58:59;;;;;;;1.05;0.40;;;;;;;;;;5028020;28;20053;-69
2024/01/31 07:01:25;;;;;;;0.75;0.45;;;;;;;;;;5017877;28;20037;-68
2024/01/31 07:03:51;;;;;;;0.70;0.30;;;;;;;;;;5015835;28;20048;-68
2024/01/31 07:06:18;;;;;;;1.85;0.50;;;;;;;;;;5019976;28;20045;-68
2024/01/31 07:08:44;;;;;;;3.97;0.80;;;;;;;;;;5020589;28;20049;-68
2024/01/31 07:11:10;;;;;;;1.80;0.60;;;;;;;;;;5018734;28;20496;-68
2024/01/31 07:13:36;;;;;;;3.70;0.98;;;;;;;;;;5013467;28;20054;-68
2024/01/31 07:16:09;;;;;;;5.55;1.02;;;;;;;;;;5015986;28;20060;-69
2024/01/31 07:18:36;;;;;;;4.22;1.25;;;;;;;;;;5017788;28;20788;-68
2024/01/31 07:21:02;;;;;;;2.60;0.93;;;;;;;;;;5018417;28;20049;-68
2024/01/31 07:23:28;;;;;;;1.85;0.52;;;;;;;;;;5015862;28;20095;-69
2024/01/31 07:25:54;;;;;;;5.15;1.20;;;;;;;;;;5017561;28;20053;-68
2024/01/31 07:28:20;;;;;;;1.25;0.55;;;;;;;;;;5018605;28;20053;-68
2024/01/31 07:30:46;;;;;;;3.25;0.60;;;;;;;;;;5019327;28;20081;-67
2024/01/31 07:33:12;;;;;;;1.35;0.95;;;;;;;;;;5013452;28;20087;-68
2024/01/31 07:35:38;;;;;;;3.88;1.05;;;;;;;;;;5019356;28;20045;-68
2024/01/31 07:38:04;;;;;;;2.08;1.20;;;;;;;;;;5018725;28;20362;-69
2024/01/31 07:40:30;;;;;;;2.65;1.20;;;;;;;;;;5017210;28;20073;-68
2024/01/31 07:42:56;;;;;;;3.80;1.35;;;;;;;;;;5019617;28;20045;-68
2024/01/31 07:45:24;;;;;;;5.13;1.30;;;;;;;;;;5015597;28;20049;-68
2024/01/31 07:47:50;;;;;;;3.10;0.95;;;;;;;;;;5017925;28;20519;-68
2024/01/31 07:50:16;;;;;;;3.15;1.00;;;;;;;;;;5016735;28;20099;-68
2024/01/31 07:52:41;;;;;;;1.42;1.02;;;;;;;;;;5014726;28;20058;-68
2024/01/31 07:55:10;;;;;;;2.70;0.90;;;;;;;;;;5017717;28;20056;-68
2024/01/31 07:57:36;;;;;;;4.28;0.80;;;;;;;;;;5015957;28;20104;-68
2024/01/31 08:00:03;;;;;;;1.40;0.98;;;;;;;;;;5018887;28;20046;-68
2024/01/31 08:02:29;;;;;;;1.92;1.00;;;;;;;;;;5033116;28;20129;-69
2024/01/31 08:04:55;;;;;;;1.42;1.20;;;;;;;;;;5020693;28;20215;-68
2024/01/31 08:07:21;;;;;;;3.03;1.40;;;;;;;;;;5015348;28;20084;-68
2024/01/31 08:09:47;;;;;;;4.38;1.70;;;;;;;;;;5020610;28;20050;-68
2024/01/31 08:12:13;;;;;;;3.97;1.02;;;;;;;;;;5018137;28;20120;-69
2024/01/31 08:14:39;;;;;;;2.72;1.27;;;;;;;;;;5019842;28;20052;-69
2024/01/31 08:17:05;;;;;;;1.63;0.85;;;;;;;;;;5017320;28;20048;-68
2024/01/31 08:19:31;;;;;;;4.82;1.58;;;;;;;;;;5034306;28;20148;-68
2024/01/31 08:21:57;;;;;;;2.53;1.35;;;;;;;;;;5018951;28;20046;-68
2024/01/31 08:24:23;;;;;;;4.47;1.35;;;;;;;;;;5020979;28;20041;-68
2024/01/31 08:26:50;;;;;;;1.60;1.05;;;;;;;;;;5016933;28;20149;-68
2024/01/31 08:29:16;;;;;;;4.40;1.20;;;;;;;;;;5017346;28;20045;-69
2024/01/31 08:31:42;;;;;;;3.78;1.23;;;;;;;;;;5019741;28;20041;-68
2024/01/31 08:34:09;;;;;;;1.80;1.33;;;;;;;;;;5017476;28;20042;-69
2024/01/31 08:36:35;;;;;;;1.98;1.30;;;;;;;;;;5016054;28;20706;-69
2024/01/31 08:39:01;;;;;;;1.95;1.35;;;;;;;;;;5019297;28;20144;-68
2024/01/31 08:41:27;;;;;;;2.35;2.03;;;;;;;;;;5018971;28;20040;-68
2024/01/31 08:43:53;;;;;;;2.75;1.70;;;;;;;;;;5024347;28;20049;-68
2024/01/31 08:46:19;;;;;;;3.08;1.88;;;;;;;;;;5014817;28;20353;-69
2024/01/31 08:48:46;;;;;;;4.50;2.40;;;;;;;;;;5018567;28;20037;-69
2024/01/31 08:51:14;;;;;;;2.63;2.42;;;;;;;;;;5024739;28;20141;-69
2024/01/31 08:53:42;;;;;;;4.40;2.17;;;;;;;;;;5037310;28;20053;-69
2024/01/31 08:56:09;;;;;;;2.63;2.42;;;;;;;;;;5024789;28;20064;-69
2024/01/31 08:58:35;;;;;;;2.97;2.25;;;;;;;;;;5019266;28;20143;-69
2024/01/31 09:01:01;;;;;;;2.58;2.25;;;;;;;;;;5020420;28;20052;-69
2024/01/31 09:03:27;;;;;;;2.75;2.53;;;;;;;;;;5018157;28;20053;-68
2024/01/31 09:05:54;;;;;;;5.25;3.00;;;;;;;;;;5020401;28;20492;-69
2024/01/31 09:08:20;;;;;;;2.33;2.13;;;;;;;;;;5023179;28;20045;-69
2024/01/31 09:10:46;;;;;;;4.13;2.72;;;;;;;;;;5023267;28;20536;-68
2024/01/31 09:13:12;;;;;;;2.92;2.50;;;;;;;;;;5022809;28;20053;-69
2024/01/31 09:15:38;;;;;;;3.42;2.63;;;;;;;;;;5017327;28;20408;-70
2024/01/31 09:18:04;;;;;;;6.57;2.97;;;;;;;;;;5026496;28;20637;-72
2024/01/31 09:20:30;;;;;;;4.80;3.53;;;;;;;;;;5020095;28;20049;-70
2024/01/31 09:22:57;;;;;;;4.72;4.18;;;;;;;;;;5023201;28;20050;-69
2024/01/31 09:25:23;;;;;;;3.92;3.58;;;;;;;;;;5018177;28;20058;-69
2024/01/31 09:27:49;;;;;;;3.97;3.63;;;;;;;;;;5022954;28;20598;-69
2024/01/31 09:30:15;;;;;;;4.95;4.43;;;;;;;;;;5022585;28;20100;-69
2024/01/31 09:32:41;;;;;;;5.10;4.10;;;;;;;;;;5024381;28;20410;-66
2024/01/31 09:35:07;;;;;;;5.22;4.03;;;;;;;;;;5023605;28;20129;-68
2024/01/31 09:37:33;;;;;;;4.22;3.75;;;;;;;;;;5021186;28;20050;-69
2024/01/31 09:40:00;;;;;;;4.22;3.85;;;;;;;;;;5025726;28;20095;-69
2024/01/31 09:42:27;;;;;;;4.15;3.55;;;;;;;;;;5020136;28;20049;-69
2024/01/31 09:44:58;;;;;;;4.82;3.72;;;;;;;;;;5021780;28;20053;-69
2024/01/31 09:47:27;;;;;;;4.80;4.22;;;;;;;;;;5025191;28;20046;-69
2024/01/31 09:49:53;;;;;;;5.53;4.80;;;;;;;;;;5023051;28;20061;-69
2024/01/31 09:52:24;;;;;;;4.90;4.40;;;;;;;;;;5020011;28;20680;-71
2024/01/31 09:54:51;;;;;;;5.13;4.63;;;;;;;;;;5024876;28;20053;-69
2024/01/31 09:57:18;;;;;;;6.68;5.93;;;;;;;;;;5022629;28;20083;-69
2024/01/31 09:59:45;;;;;;;6.55;5.88;;;;;;;;;;5017265;28;20049;-69
2024/01/31 10:02:11;;;;;;;6.70;6.00;;;;;;;;;;5018541;28;20053;-70
2024/01/31 10:04:37;;;;;;;5.95;5.35;;;;;;;;;;5022153;28;20421;-70
2024/01/31 10:07:03;;;;;;;7.30;6.60;;;;;;;;;;5023254;28;20064;-72
2024/01/31 10:09:29;;;;;;;8.00;7.20;;;;;;;;;;5020223;28;20179;-71
2024/01/31 10:11:55;;;;;;;8.73;7.63;;;;;;;;;;5016709;28;20542;-70
2024/01/31 10:14:21;;;;;;;7.95;7.15;;;;;;;;;;5022792;28;20053;-71
2024/01/31 10:16:47;;;;;;;8.45;7.13;;;;;;;;;;5022806;28;20068;-72
2024/01/31 10:19:13;;;;;;;7.57;6.88;;;;;;;;;;5012676;28;20048;-70
2024/01/31 10:21:39;;;;;;;6.68;6.05;;;;;;;;;;5016256;28;20064;-73
2024/01/31 10:24:05;;;;;;;6.85;6.18;;;;;;;;;;5015887;28;20049;-72
2024/01/31 10:26:33;;;;;;;8.40;7.50;;;;;;;;;;5019692;28;20079;-74
2024/01/31 10:29:00;;;;;;;8.38;6.60;;;;;;;;;;5018043;28;20609;-70
2024/01/31 10:31:28;;;;;;;7.40;6.70;;;;;;;;;;5017026;28;20037;-70
2024/01/31 10:33:55;;;;;;;7.82;7.00;;;;;;;;;;5018408;28;20053;-71
2024/01/31 10:36:21;;;;;;;9.07;7.65;;;;;;;;;;5021888;28;20408;-70
2024/01/31 10:38:48;;;;;;;7.68;6.22;;;;;;;;;;5023180;28;20053;-70
2024/01/31 10:41:15;;;;;;;6.13;5.55;;;;;;;;;;5020080;28;20507;-73
2024/01/31 10:43:42;;;;;;;7.47;6.47;;;;;;;;;;5017073;28;20739;-73
2024/01/31 10:46:08;;;;;;;6.00;5.40;;;;;;;;;;5018586;28;20052;-74
2024/01/31 10:48:34;;;;;;;6.88;6.18;;;;;;;;;;5017396;28;20404;-68
2024/01/31 10:51:01;;;;;;;7.15;5.20;;;;;;;;;;5016594;28;20050;-74
2024/01/31 10:53:29;;;;;;;6.18;5.47;;;;;;;;;;5013165;28;20607;-72
2024/01/31 10:55:56;;;;;;;5.70;5.10;;;;;;;;;;5017817;28;20045;-72
2024/01/31 10:58:22;;;;;;;5.47;4.97;;;;;;;;;;5020955;28;20052;-72
2024/01/31 11:00:49;;;;;;;6.65;6.05;;;;;;;;;;5023397;28;20083;-73
2024/01/31 11:03:15;;;;;;;5.72;5.22;;;;;;;;;;5017822;28;20088;-72
2024/01/31 11:05:42;;;;;;;5.93;5.20;;;;;;;;;;5017666;28;20057;-72
2024/01/31 11:08:21;;;;;;;5.90;5.30;;;;;;;;;;5018469;28;20072;-72
2024/01/31 11:10:47;;;;;;;5.97;5.38;;;;;;;;;;5020428;28;20049;-72
2024/01/31 11:13:13;;;;;;;7.28;5.20;;;;;;;;;;5020341;28;20045;-73
2024/01/31 11:15:40;;;;;;;5.80;5.13;;;;;;;;;;5011688;28;20398;-73
2024/01/31 11:18:09;;;;;;;5.32;4.82;;;;;;;;;;5016522;28;20061;-72
2024/01/31 11:20:40;;;;;;;7.30;5.43;;;;;;;;;;5014767;28;20044;-72
2024/01/31 11:23:06;;;;;;;5.95;4.80;;;;;;;;;;5016767;28;20049;-72
2024/01/31 11:25:37;;;;;;;6.53;5.70;;;;;;;;;;5017962;28;20510;-73
2024/01/31 11:28:06;;;;;;;5.80;5.25;;;;;;;;;;5017406;28;20057;-72
2024/01/31 11:30:32;;;;;;;6.43;5.55;;;;;;;;;;5016250;28;20045;-72
2024/01/31 11:33:05;;;;;;;5.30;4.80;;;;;;;;;;5018707;28;20049;-73
2024/01/31 11:35:31;;;;;;;5.63;4.70;;;;;;;;;;5013832;28;20045;-72
2024/01/31 11:37:58;;;;;;;6.07;4.78;;;;;;;;;;5017134;28;20049;-72
2024/01/31 11:40:24;;;;;;;7.18;5.25;;;;;;;;;;5021625;28;20045;-68
2024/01/31 11:42:52;;;;;;;4.72;4.30;;;;;;;;;;5025894;28;20049;-69
2024/01/31 11:45:18;;;;;;;5.18;4.47;;;;;;;;;;5019752;28;20125;-71
2024/01/31 11:47:44;;;;;;;4.78;4.35;;;;;;;;;;5028250;28;20049;-72
2024/01/31 11:50:10;;;;;;;4.53;4.13;;;;;;;;;;5026019;28;21064;-71
2024/01/31 11:52:37;;;;;;;5.57;4.55;;;;;;;;;;5028312;28;20096;-71
2024/01/31 11:55:06;;;;;;;4.10;3.70;;;;;;;;;;5028201;28;20048;-71
2024/01/31 11:57:32;;;;;;;5.60;4.45;;;;;;;;;;5023055;28;20041;-73
2024/01/31 11:59:59;;;;;;;4.05;3.63;;;;;;;;;;5026673;28;20053;-71
2024/01/31 12:02:25;;;;;;;6.00;4.18;;;;;;;;;;5023261;28;20529;-72
2024/01/31 12:04:52;;;;;;;4.93;4.38;;;;;;;;;;5023315;28;20103;-71
2024/01/31 12:07:18;;;;;;;5.35;4.85;;;;;;;;;;5025844;28;20052;-71
2024/01/31 12:09:44;;;;;;;5.20;4.22;;;;;;;;;;5028347;28;20049;-72
2024/01/31 12:12:10;;;;;;;4.30;3.90;;;;;;;;;;5031185;28;20057;-72
2024/01/31 12:14:36;;;;;;;4.78;4.38;;;;;;;;;;5030145;28;20400;-73
2024/01/31 12:17:03;;;;;;;4.30;3.90;;;;;;;;;;5026296;28;20102;-73
2024/01/31 12:19:29;;;;;;;5.95;4.40;;;;;;;;;;5022514;28;20042;-73
2024/01/31 12:21:56;;;;;;;5.10;4.25;;;;;;;;;;5022033;28;20094;-72
2024/01/31 12:24:23;;;;;;;5.00;4.35;;;;;;;;;;5021571;28;20094;-73
2024/01/31 12:26:49;;;;;;;7.05;5.43;;;;;;;;;;5026730;28;20564;-72
2024/01/31 12:29:15;;;;;;;5.00;4.50;;;;;;;;;;5021999;28;20533;-72
2024/01/31 12:31:41;;;;;;;6.65;4.68;;;;;;;;;;5020592;28;20129;-73
2024/01/31 12:34:09;;;;;;;5.10;4.60;;;;;;;;;;5024003;28;20046;-72
2024/01/31 12:36:35;;;;;;;6.22;4.85;;;;;;;;;;5029294;28;20056;-73
2024/01/31 12:39:01;;;;;;;5.45;4.50;;;;;;;;;;5026707;28;20045;-73
2024/01/31 12:41:27;;;;;;;5.30;4.18;;;;;;;;;;5031028;28;20053;-72
2024/01/31 12:43:53;;;;;;;4.65;4.22;;;;;;;;;;5030372;28;20152;-72
2024/01/31 12:46:20;;;;;;;6.18;4.57;;;;;;;;;;5027952;28;20400;-71
2024/01/31 12:48:46;;;;;;;6.32;4.88;;;;;;;;;;5019781;28;20096;-72
2024/01/31 12:51:12;;;;;;;6.00;5.45;;;;;;;;;;5022384;28;20084;-71
2024/01/31 12:53:38;;;;;;;5.82;5.22;;;;;;;;;;5026447;28;20515;-71
2024/01/31 12:56:04;;;;;;;4.95;4.28;;;;;;;;;;5024418;28;20084;-72
2024/01/31 12:58:30;;;;;;;5.25;4.75;;;;;;;;;;5018980;28;20050;-71
2024/01/31 13:00:56;;;;;;;4.43;4.03;;;;;;;;;;5020116;28;20106;-71
2024/01/31 13:03:22;;;;;;;5.47;4.28;;;;;;;;;;5023660;28;20069;-70
2024/01/31 13:05:48;;;;;;;4.35;3.95;;;;;;;;;;5025530;28;20462;-70
2024/01/31 13:08:15;;;;;;;5.18;4.68;;;;;;;;;;5019491;28;20041;-70
2024/01/31 13:10:41;;;;;;;4.47;4.07;;;;;;;;;;5023962;28;20536;-70
2024/01/31 13:13:07;;;;;;;4.70;4.28;;;;;;;;;;5025444;28;20115;-70
2024/01/31 13:15:33;;;;;;;4.85;4.30;;;;;;;;;;5023915;28;20156;-71
2024/01/31 13:17:59;;;;;;;4.97;4.40;;;;;;;;;;5022842;28;20037;-70
2024/01/31 13:20:25;;;;;;;6.13;4.63;;;;;;;;;;5024097;28;20053;-72
2024/01/31 13:22:52;;;;;;;6.70;5.22;;;;;;;;;;5021478;28;20575;-70
2024/01/31 13:25:18;;;;;;;6.65;5.28;;;;;;;;;;5021661;28;20072;-73
2024/01/31 13:27:44;;;;;;;5.30;4.80;;;;;;;;;;5021763;28;20124;-72
2024/01/31 13:30:10;;;;;;;5.10;4.60;;;;;;;;;;5022882;28;20108;-72
2024/01/31 13:32:36;;;;;;;5.40;4.90;;;;;;;;;;5019780;28;20128;-72
2024/01/31 13:35:02;;;;;;;7.07;5.50;;;;;;;;;;5018044;28;20149;-74
2024/01/31 13:37:28;;;;;;;5.97;5.38;;;;;;;;;;5017700;28;20050;-72
2024/01/31 13:39:54;;;;;;;5.32;4.85;;;;;;;;;;5021140;28;20503;-72
2024/01/31 13:42:20;;;;;;;5.03;4.47;;;;;;;;;;5022082;28;20052;-72
2024/01/31 13:44:46;;;;;;;4.85;4.32;;;;;;;;;;5021358;28;20492;-72
2024/01/31 13:47:12;;;;;;;5.43;4.93;;;;;;;;;;5021787;28;20037;-81
2024/01/31 13:49:38;;;;;;;6.25;5.65;;;;;;;;;;5021445;28;20057;-71
2024/01/31 13:52:04;;;;;;;6.10;4.82;;;;;;;;;;5021616;28;20079;-72
2024/01/31 13:54:31;;;;;;;5.90;5.15;;;;;;;;;;5016624;28;20061;-68
2024/01/31 13:56:57;;;;;;;5.68;5.03;;;;;;;;;;5020028;28;20400;-71
2024/01/31 13:59:23;;;;;;;6.28;5.63;;;;;;;;;;5021554;28;20045;-70
2024/01/31 14:01:49;;;;;;;5.72;5.18;;;;;;;;;;5015524;28;20046;-70
2024/01/31 14:04:16;;;;;;;6.95;5.93;;;;;;;;;;5019825;28;20175;-70
2024/01/31 14:06:42;;;;;;;6.30;5.65;;;;;;;;;;5017167;28;20045;-70
2024/01/31 14:09:08;;;;;;;6.45;5.50;;;;;;;;;;5018031;28;20045;-70
2024/01/31 14:11:35;;;;;;;6.80;5.20;;;;;;;;;;5020890;28;20076;-71
2024/01/31 14:14:01;;;;;;;7.38;6.68;;;;;;;;;;5021702;28;20041;-70
2024/01/31 14:16:27;;;;;;;7.95;6.43;;;;;;;;;;5022680;28;20052;-70
2024/01/31 14:18:53;;;;;;;7.28;6.57;;;;;;;;;;5021987;28;20053;-71
2024/01/31 14:21:19;;;;;;;10.82;6.90;;;;;;;;;;5024341;28;20107;-71
2024/01/31 14:23:46;;;;;;;8.32;7.53;;;;;;;;;;5017331;28;20104;-70
2024/01/31 14:26:12;;;;;;;8.25;7.05;;;;;;;;;;5009566;28;20056;-70
2024/01/31 14:28:39;;;;;;;8.25;6.97;;;;;;;;;;5020776;28;20072;-70
2024/01/31 14:31:08;;;;;;;6.78;6.07;;;;;;;;;;5019924;28;20042;-74
2024/01/31 14:33:34;;;;;;;8.63;7.70;;;;;;;;;;5020918;28;20050;-71
2024/01/31 14:36:01;;;;;;;8.98;7.70;;;;;;;;;;5020337;28;20357;-72
2024/01/31 14:38:27;;;;;;;8.40;6.75;;;;;;;;;;5018122;28;20049;-75